sensor_id;sensor_type;location;lat;lon;timestamp;P1;durP1;ratioP1;P2;durP2;ratioP2
982;SDS011;480;48.124;11.578;2022-10-31T00:00:29;7.97;;;7.17;;
982;SDS011;480;48.124;11.578;2022-10-31T00:02:58;9.37;;;6.73;;
982;SDS011;480;48.124;11.578;2022-10-31T00:05:25;9.70;;;6.43;;
982;SDS011;480;48.124;11.578;2022-10-31T00:07:52;7.43;;;6.30;;
982;SDS011;480;48.124;11.578;2022-10-31T00:10:19;12.47;;;6.90;;
982;SDS011;480;48.124;11.578;2022-10-31T00:12:46;8.97;;;6.23;;
982;SDS011;480;48.124;11.578;2022-10-31T00:15:13;7.07;;;6.17;;
982;SDS011;480;48.124;11.578;2022-10-31T00:17:40;8.10;;;6.37;;
982;SDS011;480;48.124;11.578;2022-10-31T00:20:09;10.37;;;7.00;;
982;SDS011;480;48.124;11.578;2022-10-31T00:22:36;6.80;;;6.20;;
982;SDS011;480;48.124;11.578;2022-10-31T00:25:04;7.90;;;5.60;;
982;SDS011;480;48.124;11.578;2022-10-31T00:27:31;7.30;;;6.23;;
982;SDS011;480;48.124;11.578;2022-10-31T00:29:58;7.17;;;6.40;;
982;SDS011;480;48.124;11.578;2022-10-31T00:32:25;9.87;;;7.00;;
982;SDS011;480;48.124;11.578;2022-10-31T00:34:54;7.00;;;6.30;;
982;SDS011;480;48.124;11.578;2022-10-31T00:37:23;8.67;;;5.77;;
982;SDS011;480;48.124;11.578;2022-10-31T00:39:50;10.90;;;6.70;;
982;SDS011;480;48.124;11.578;2022-10-31T00:42:23;8.03;;;6.00;;
982;SDS011;480;48.124;11.578;2022-10-31T00:44:50;7.53;;;5.90;;
982;SDS011;480;48.124;11.578;2022-10-31T00:47:17;11.33;;;5.90;;
982;SDS011;480;48.124;11.578;2022-10-31T00:49:44;11.30;;;6.57;;
982;SDS011;480;48.124;11.578;2022-10-31T00:52:11;7.23;;;5.70;;
982;SDS011;480;48.124;11.578;2022-10-31T00:54:39;7.00;;;5.20;;
982;SDS011;480;48.124;11.578;2022-10-31T00:57:06;5.73;;;5.20;;
982;SDS011;480;48.124;11.578;2022-10-31T00:59:33;5.50;;;4.33;;
982;SDS011;480;48.124;11.578;2022-10-31T01:02:00;9.57;;;4.90;;
982;SDS011;480;48.124;11.578;2022-10-31T01:04:27;11.33;;;6.40;;
982;SDS011;480;48.124;11.578;2022-10-31T01:06:54;7.93;;;5.10;;
982;SDS011;480;48.124;11.578;2022-10-31T01:09:21;8.63;;;4.60;;
982;SDS011;480;48.124;11.578;2022-10-31T01:12:08;6.73;;;4.27;;
982;SDS011;480;48.124;11.578;2022-10-31T01:14:35;6.73;;;5.03;;
982;SDS011;480;48.124;11.578;2022-10-31T01:17:02;5.77;;;4.23;;
982;SDS011;480;48.124;11.578;2022-10-31T01:19:29;5.50;;;4.90;;
982;SDS011;480;48.124;11.578;2022-10-31T01:21:56;4.53;;;3.90;;
982;SDS011;480;48.124;11.578;2022-10-31T01:24:23;8.90;;;4.80;;
982;SDS011;480;48.124;11.578;2022-10-31T01:26:50;8.03;;;5.70;;
982;SDS011;480;48.124;11.578;2022-10-31T01:29:19;5.10;;;4.60;;
982;SDS011;480;48.124;11.578;2022-10-31T01:31:46;6.60;;;4.10;;
982;SDS011;480;48.124;11.578;2022-10-31T01:34:13;8.00;;;5.57;;
982;SDS011;480;48.124;11.578;2022-10-31T01:36:43;9.13;;;4.70;;
982;SDS011;480;48.124;11.578;2022-10-31T01:39:12;8.20;;;3.90;;
982;SDS011;480;48.124;11.578;2022-10-31T01:41:41;7.00;;;4.63;;
982;SDS011;480;48.124;11.578;2022-10-31T01:47:34;4.67;;;4.00;;
982;SDS011;480;48.124;11.578;2022-10-31T01:50:10;8.57;;;5.23;;
982;SDS011;480;48.124;11.578;2022-10-31T01:52:49;6.80;;;3.60;;
982;SDS011;480;48.124;11.578;2022-10-31T01:55:20;4.97;;;3.63;;
982;SDS011;480;48.124;11.578;2022-10-31T01:57:50;7.80;;;4.57;;
982;SDS011;480;48.124;11.578;2022-10-31T02:00:20;8.33;;;4.27;;
982;SDS011;480;48.124;11.578;2022-10-31T02:02:49;5.57;;;4.47;;
982;SDS011;480;48.124;11.578;2022-10-31T02:05:17;7.70;;;4.50;;
982;SDS011;480;48.124;11.578;2022-10-31T02:07:49;5.57;;;4.60;;
982;SDS011;480;48.124;11.578;2022-10-31T02:10:20;7.57;;;5.27;;
982;SDS011;480;48.124;11.578;2022-10-31T02:12:50;7.70;;;4.90;;
982;SDS011;480;48.124;11.578;2022-10-31T02:15:19;3.83;;;3.43;;
982;SDS011;480;48.124;11.578;2022-10-31T02:17:46;6.27;;;4.37;;
982;SDS011;480;48.124;11.578;2022-10-31T02:20:16;7.40;;;4.67;;
982;SDS011;480;48.124;11.578;2022-10-31T02:22:54;5.47;;;4.90;;
982;SDS011;480;48.124;11.578;2022-10-31T02:25:57;4.73;;;4.20;;
982;SDS011;480;48.124;11.578;2022-10-31T02:28:52;6.47;;;5.80;;
982;SDS011;480;48.124;11.578;2022-10-31T02:31:35;10.03;;;5.17;;
982;SDS011;480;48.124;11.578;2022-10-31T02:34:11;4.23;;;3.73;;
982;SDS011;480;48.124;11.578;2022-10-31T02:36:47;5.67;;;5.07;;
982;SDS011;480;48.124;11.578;2022-10-31T02:39:22;5.80;;;4.67;;
982;SDS011;480;48.124;11.578;2022-10-31T02:41:52;8.67;;;4.73;;
982;SDS011;480;48.124;11.578;2022-10-31T02:44:30;12.43;;;5.20;;
982;SDS011;480;48.124;11.578;2022-10-31T02:47:05;5.23;;;3.97;;
982;SDS011;480;48.124;11.578;2022-10-31T02:49:36;7.67;;;4.90;;
982;SDS011;480;48.124;11.578;2022-10-31T02:52:18;6.37;;;4.90;;
982;SDS011;480;48.124;11.578;2022-10-31T02:54:47;4.80;;;3.47;;
982;SDS011;480;48.124;11.578;2022-10-31T02:57:15;5.60;;;4.53;;
982;SDS011;480;48.124;11.578;2022-10-31T02:59:46;5.17;;;3.80;;
982;SDS011;480;48.124;11.578;2022-10-31T03:02:22;5.30;;;4.80;;
982;SDS011;480;48.124;11.578;2022-10-31T03:05:13;9.07;;;5.77;;
982;SDS011;480;48.124;11.578;2022-10-31T03:08:02;4.10;;;3.70;;
982;SDS011;480;48.124;11.578;2022-10-31T03:10:35;3.83;;;3.47;;
982;SDS011;480;48.124;11.578;2022-10-31T03:13:09;5.37;;;4.07;;
982;SDS011;480;48.124;11.578;2022-10-31T03:15:42;5.73;;;4.27;;
982;SDS011;480;48.124;11.578;2022-10-31T03:18:13;5.20;;;4.33;;
982;SDS011;480;48.124;11.578;2022-10-31T03:20:44;5.60;;;4.50;;
982;SDS011;480;48.124;11.578;2022-10-31T03:23:17;6.87;;;3.90;;
982;SDS011;480;48.124;11.578;2022-10-31T03:25:47;11.07;;;5.30;;
982;SDS011;480;48.124;11.578;2022-10-31T03:28:16;6.97;;;4.43;;
982;SDS011;480;48.124;11.578;2022-10-31T03:30:49;6.60;;;4.17;;
982;SDS011;480;48.124;11.578;2022-10-31T03:33:20;6.30;;;4.87;;
982;SDS011;480;48.124;11.578;2022-10-31T03:35:51;5.00;;;3.70;;
982;SDS011;480;48.124;11.578;2022-10-31T03:38:21;5.40;;;3.90;;
982;SDS011;480;48.124;11.578;2022-10-31T03:40:49;5.37;;;4.43;;
982;SDS011;480;48.124;11.578;2022-10-31T03:43:18;3.90;;;3.57;;
982;SDS011;480;48.124;11.578;2022-10-31T03:45:50;4.17;;;3.63;;
982;SDS011;480;48.124;11.578;2022-10-31T03:48:18;5.93;;;4.10;;
982;SDS011;480;48.124;11.578;2022-10-31T03:50:49;4.20;;;3.50;;
982;SDS011;480;48.124;11.578;2022-10-31T03:53:22;5.53;;;4.03;;
982;SDS011;480;48.124;11.578;2022-10-31T03:55:53;5.57;;;4.60;;
982;SDS011;480;48.124;11.578;2022-10-31T03:58:26;4.23;;;3.00;;
982;SDS011;480;48.124;11.578;2022-10-31T04:00:56;5.40;;;4.33;;
982;SDS011;480;48.124;11.578;2022-10-31T04:03:28;4.33;;;3.90;;
982;SDS011;480;48.124;11.578;2022-10-31T04:05:59;4.43;;;4.00;;
982;SDS011;480;48.124;11.578;2022-10-31T04:08:32;6.90;;;3.97;;
982;SDS011;480;48.124;11.578;2022-10-31T04:11:03;7.63;;;3.50;;
982;SDS011;480;48.124;11.578;2022-10-31T04:13:33;7.37;;;3.53;;
982;SDS011;480;48.124;11.578;2022-10-31T04:16:03;5.20;;;4.37;;
982;SDS011;480;48.124;11.578;2022-10-31T04:18:32;11.90;;;5.80;;
982;SDS011;480;48.124;11.578;2022-10-31T04:21:00;4.10;;;2.73;;
982;SDS011;480;48.124;11.578;2022-10-31T04:23:28;6.13;;;3.97;;
982;SDS011;480;48.124;11.578;2022-10-31T04:25:55;4.67;;;3.43;;
982;SDS011;480;48.124;11.578;2022-10-31T04:28:22;5.67;;;3.93;;
982;SDS011;480;48.124;11.578;2022-10-31T04:30:49;6.20;;;3.30;;
982;SDS011;480;48.124;11.578;2022-10-31T04:33:17;4.60;;;3.47;;
982;SDS011;480;48.124;11.578;2022-10-31T04:35:46;4.97;;;3.43;;
982;SDS011;480;48.124;11.578;2022-10-31T04:38:13;7.90;;;3.77;;
982;SDS011;480;48.124;11.578;2022-10-31T04:40:40;4.27;;;3.53;;
982;SDS011;480;48.124;11.578;2022-10-31T04:43:07;4.00;;;3.60;;
982;SDS011;480;48.124;11.578;2022-10-31T04:45:34;7.00;;;4.90;;
982;SDS011;480;48.124;11.578;2022-10-31T04:48:01;8.50;;;4.20;;
982;SDS011;480;48.124;11.578;2022-10-31T04:50:28;3.57;;;3.27;;
982;SDS011;480;48.124;11.578;2022-10-31T04:52:57;5.80;;;3.23;;
982;SDS011;480;48.124;11.578;2022-10-31T04:55:24;4.37;;;3.60;;
982;SDS011;480;48.124;11.578;2022-10-31T04:57:51;4.83;;;3.70;;
982;SDS011;480;48.124;11.578;2022-10-31T05:00:18;3.93;;;3.47;;
982;SDS011;480;48.124;11.578;2022-10-31T05:02:47;6.07;;;3.10;;
982;SDS011;480;48.124;11.578;2022-10-31T05:05:15;5.07;;;3.33;;
982;SDS011;480;48.124;11.578;2022-10-31T05:07:45;5.20;;;3.40;;
982;SDS011;480;48.124;11.578;2022-10-31T05:10:16;5.33;;;3.33;;
982;SDS011;480;48.124;11.578;2022-10-31T05:12:47;6.17;;;3.60;;
982;SDS011;480;48.124;11.578;2022-10-31T05:15:16;4.10;;;3.70;;
982;SDS011;480;48.124;11.578;2022-10-31T05:17:44;5.80;;;3.47;;
982;SDS011;480;48.124;11.578;2022-10-31T05:20:12;5.20;;;3.43;;
982;SDS011;480;48.124;11.578;2022-10-31T05:22:41;6.73;;;3.70;;
982;SDS011;480;48.124;11.578;2022-10-31T05:25:09;4.00;;;3.60;;
982;SDS011;480;48.124;11.578;2022-10-31T05:27:39;4.23;;;3.20;;
982;SDS011;480;48.124;11.578;2022-10-31T05:30:07;7.00;;;3.50;;
982;SDS011;480;48.124;11.578;2022-10-31T05:32:38;7.07;;;3.90;;
982;SDS011;480;48.124;11.578;2022-10-31T05:35:05;5.00;;;4.27;;
982;SDS011;480;48.124;11.578;2022-10-31T05:37:34;7.23;;;3.87;;
982;SDS011;480;48.124;11.578;2022-10-31T05:40:01;6.00;;;3.60;;
982;SDS011;480;48.124;11.578;2022-10-31T05:42:29;3.77;;;3.40;;
982;SDS011;480;48.124;11.578;2022-10-31T05:44:57;8.10;;;4.00;;
982;SDS011;480;48.124;11.578;2022-10-31T05:47:24;3.83;;;3.53;;
982;SDS011;480;48.124;11.578;2022-10-31T05:49:51;6.60;;;5.27;;
982;SDS011;480;48.124;11.578;2022-10-31T05:52:18;6.07;;;3.53;;
982;SDS011;480;48.124;11.578;2022-10-31T05:54:45;6.00;;;3.63;;
982;SDS011;480;48.124;11.578;2022-10-31T05:57:12;5.00;;;4.10;;
982;SDS011;480;48.124;11.578;2022-10-31T05:59:39;6.27;;;4.37;;
982;SDS011;480;48.124;11.578;2022-10-31T06:02:07;6.27;;;4.00;;
982;SDS011;480;48.124;11.578;2022-10-31T06:04:35;10.50;;;4.20;;
982;SDS011;480;48.124;11.578;2022-10-31T06:07:01;3.63;;;3.33;;
982;SDS011;480;48.124;11.578;2022-10-31T06:09:29;7.30;;;4.77;;
982;SDS011;480;48.124;11.578;2022-10-31T06:11:56;4.73;;;4.20;;
982;SDS011;480;48.124;11.578;2022-10-31T06:14:23;6.33;;;4.53;;
982;SDS011;480;48.124;11.578;2022-10-31T06:16:50;5.20;;;3.90;;
982;SDS011;480;48.124;11.578;2022-10-31T06:19:18;4.37;;;3.93;;
982;SDS011;480;48.124;11.578;2022-10-31T06:21:45;6.53;;;3.77;;
982;SDS011;480;48.124;11.578;2022-10-31T06:24:12;4.17;;;3.20;;
982;SDS011;480;48.124;11.578;2022-10-31T06:26:39;5.63;;;4.30;;
982;SDS011;480;48.124;11.578;2022-10-31T06:29:07;4.30;;;2.43;;
982;SDS011;480;48.124;11.578;2022-10-31T06:31:34;5.03;;;3.53;;
982;SDS011;480;48.124;11.578;2022-10-31T06:34:01;4.10;;;3.13;;
982;SDS011;480;48.124;11.578;2022-10-31T06:36:29;7.67;;;3.90;;
982;SDS011;480;48.124;11.578;2022-10-31T06:38:56;5.13;;;4.20;;
982;SDS011;480;48.124;11.578;2022-10-31T06:41:23;5.63;;;5.17;;
982;SDS011;480;48.124;11.578;2022-10-31T06:43:50;6.67;;;3.70;;
982;SDS011;480;48.124;11.578;2022-10-31T06:46:17;4.20;;;3.80;;
982;SDS011;480;48.124;11.578;2022-10-31T06:48:44;5.23;;;2.90;;
982;SDS011;480;48.124;11.578;2022-10-31T06:51:11;3.23;;;2.80;;
982;SDS011;480;48.124;11.578;2022-10-31T06:53:40;9.63;;;3.67;;
982;SDS011;480;48.124;11.578;2022-10-31T06:56:07;5.53;;;3.70;;
982;SDS011;480;48.124;11.578;2022-10-31T06:58:34;6.53;;;3.80;;
982;SDS011;480;48.124;11.578;2022-10-31T07:01:01;7.00;;;4.53;;
982;SDS011;480;48.124;11.578;2022-10-31T07:03:28;6.20;;;4.67;;
982;SDS011;480;48.124;11.578;2022-10-31T07:05:55;5.83;;;4.17;;
982;SDS011;480;48.124;11.578;2022-10-31T07:08:22;5.90;;;3.73;;
982;SDS011;480;48.124;11.578;2022-10-31T07:10:52;4.43;;;4.00;;
982;SDS011;480;48.124;11.578;2022-10-31T07:13:21;4.03;;;2.57;;
982;SDS011;480;48.124;11.578;2022-10-31T07:15:51;9.20;;;3.90;;
982;SDS011;480;48.124;11.578;2022-10-31T07:18:19;5.03;;;3.23;;
982;SDS011;480;48.124;11.578;2022-10-31T07:20:47;3.70;;;3.03;;
982;SDS011;480;48.124;11.578;2022-10-31T07:23:14;4.10;;;3.70;;
982;SDS011;480;48.124;11.578;2022-10-31T07:25:41;3.63;;;3.03;;
982;SDS011;480;48.124;11.578;2022-10-31T07:28:10;8.40;;;4.47;;
982;SDS011;480;48.124;11.578;2022-10-31T07:30:37;4.30;;;3.23;;
982;SDS011;480;48.124;11.578;2022-10-31T07:33:04;7.00;;;4.20;;
982;SDS011;480;48.124;11.578;2022-10-31T07:35:32;4.40;;;3.53;;
982;SDS011;480;48.124;11.578;2022-10-31T07:38:06;6.70;;;3.63;;
982;SDS011;480;48.124;11.578;2022-10-31T07:40:34;6.33;;;4.30;;
982;SDS011;480;48.124;11.578;2022-10-31T07:43:01;3.93;;;3.50;;
982;SDS011;480;48.124;11.578;2022-10-31T07:45:30;3.93;;;3.50;;
982;SDS011;480;48.124;11.578;2022-10-31T07:47:57;5.93;;;3.97;;
982;SDS011;480;48.124;11.578;2022-10-31T07:50:25;9.50;;;4.57;;
982;SDS011;480;48.124;11.578;2022-10-31T07:52:59;4.50;;;3.37;;
982;SDS011;480;48.124;11.578;2022-10-31T07:55:28;4.63;;;3.67;;
982;SDS011;480;48.124;11.578;2022-10-31T07:57:55;4.10;;;3.70;;
982;SDS011;480;48.124;11.578;2022-10-31T08:00:23;7.37;;;3.97;;
982;SDS011;480;48.124;11.578;2022-10-31T08:02:57;4.27;;;3.23;;
982;SDS011;480;48.124;11.578;2022-10-31T08:05:29;7.40;;;3.50;;
982;SDS011;480;48.124;11.578;2022-10-31T08:07:57;5.40;;;3.93;;
982;SDS011;480;48.124;11.578;2022-10-31T08:10:25;5.67;;;5.03;;
982;SDS011;480;48.124;11.578;2022-10-31T08:12:56;5.70;;;5.07;;
982;SDS011;480;48.124;11.578;2022-10-31T08:15:25;9.70;;;4.43;;
982;SDS011;480;48.124;11.578;2022-10-31T08:17:52;6.23;;;4.43;;
982;SDS011;480;48.124;11.578;2022-10-31T08:20:21;9.70;;;5.00;;
982;SDS011;480;48.124;11.578;2022-10-31T08:22:55;4.33;;;3.93;;
982;SDS011;480;48.124;11.578;2022-10-31T08:25:23;6.27;;;4.10;;
982;SDS011;480;48.124;11.578;2022-10-31T08:27:51;7.00;;;4.53;;
982;SDS011;480;48.124;11.578;2022-10-31T08:30:19;5.50;;;3.93;;
982;SDS011;480;48.124;11.578;2022-10-31T08:32:56;8.23;;;4.30;;
982;SDS011;480;48.124;11.578;2022-10-31T08:35:26;9.37;;;5.03;;
982;SDS011;480;48.124;11.578;2022-10-31T08:37:54;5.87;;;4.07;;
982;SDS011;480;48.124;11.578;2022-10-31T08:40:21;4.80;;;3.87;;
982;SDS011;480;48.124;11.578;2022-10-31T08:42:55;7.00;;;4.10;;
982;SDS011;480;48.124;11.578;2022-10-31T08:45:23;5.10;;;4.23;;
982;SDS011;480;48.124;11.578;2022-10-31T08:47:50;12.70;;;5.87;;
982;SDS011;480;48.124;11.578;2022-10-31T08:50:17;8.70;;;5.60;;
982;SDS011;480;48.124;11.578;2022-10-31T08:52:46;7.10;;;4.50;;
982;SDS011;480;48.124;11.578;2022-10-31T08:55:13;6.83;;;5.60;;
982;SDS011;480;48.124;11.578;2022-10-31T08:57:40;7.90;;;5.73;;
982;SDS011;480;48.124;11.578;2022-10-31T09:00:08;11.60;;;5.10;;
982;SDS011;480;48.124;11.578;2022-10-31T09:02:35;10.00;;;5.30;;
982;SDS011;480;48.124;11.578;2022-10-31T09:05:04;6.70;;;5.80;;
982;SDS011;480;48.124;11.578;2022-10-31T09:07:31;6.60;;;5.33;;
982;SDS011;480;48.124;11.578;2022-10-31T09:10:08;7.20;;;5.70;;
982;SDS011;480;48.124;11.578;2022-10-31T09:12:35;9.33;;;5.50;;
982;SDS011;480;48.124;11.578;2022-10-31T09:15:02;11.43;;;5.53;;
982;SDS011;480;48.124;11.578;2022-10-31T09:17:31;5.80;;;4.97;;
982;SDS011;480;48.124;11.578;2022-10-31T09:19:59;7.03;;;6.23;;
982;SDS011;480;48.124;11.578;2022-10-31T09:23:01;8.87;;;5.20;;
982;SDS011;480;48.124;11.578;2022-10-31T09:25:32;7.30;;;5.30;;
982;SDS011;480;48.124;11.578;2022-10-31T09:28:00;8.80;;;6.00;;
982;SDS011;480;48.124;11.578;2022-10-31T09:30:29;8.30;;;6.37;;
982;SDS011;480;48.124;11.578;2022-10-31T09:32:59;6.27;;;5.10;;
982;SDS011;480;48.124;11.578;2022-10-31T09:35:27;6.67;;;4.80;;
982;SDS011;480;48.124;11.578;2022-10-31T09:37:55;10.00;;;5.53;;
982;SDS011;480;48.124;11.578;2022-10-31T09:40:22;6.63;;;5.37;;
982;SDS011;480;48.124;11.578;2022-10-31T09:42:58;6.50;;;4.60;;
982;SDS011;480;48.124;11.578;2022-10-31T09:45:36;7.57;;;4.27;;
982;SDS011;480;48.124;11.578;2022-10-31T09:48:21;10.67;;;5.03;;
982;SDS011;480;48.124;11.578;2022-10-31T09:51:04;6.17;;;4.20;;
982;SDS011;480;48.124;11.578;2022-10-31T09:53:36;4.50;;;3.13;;
982;SDS011;480;48.124;11.578;2022-10-31T09:56:11;4.30;;;3.40;;
982;SDS011;480;48.124;11.578;2022-10-31T09:59:10;6.13;;;4.63;;
982;SDS011;480;48.124;11.578;2022-10-31T10:01:46;8.63;;;3.90;;
982;SDS011;480;48.124;11.578;2022-10-31T10:04:32;3.83;;;3.27;;
982;SDS011;480;48.124;11.578;2022-10-31T10:07:38;5.17;;;3.60;;
982;SDS011;480;48.124;11.578;2022-10-31T10:10:15;4.43;;;3.63;;
982;SDS011;480;48.124;11.578;2022-10-31T10:12:48;5.00;;;4.07;;
982;SDS011;480;48.124;11.578;2022-10-31T10:15:30;4.80;;;3.60;;
982;SDS011;480;48.124;11.578;2022-10-31T10:18:11;4.40;;;2.90;;
982;SDS011;480;48.124;11.578;2022-10-31T10:20:54;5.20;;;2.53;;
982;SDS011;480;48.124;11.578;2022-10-31T10:26:18;2.23;;;1.90;;
982;SDS011;480;48.124;11.578;2022-10-31T10:28:50;6.63;;;3.00;;
982;SDS011;480;48.124;11.578;2022-10-31T10:31:23;6.63;;;2.50;;
982;SDS011;480;48.124;11.578;2022-10-31T10:33:58;3.70;;;2.80;;
982;SDS011;480;48.124;11.578;2022-10-31T10:36:35;8.30;;;3.47;;
982;SDS011;480;48.124;11.578;2022-10-31T10:39:11;4.57;;;3.27;;
982;SDS011;480;48.124;11.578;2022-10-31T10:41:43;3.23;;;2.93;;
982;SDS011;480;48.124;11.578;2022-10-31T10:44:27;3.83;;;2.53;;
982;SDS011;480;48.124;11.578;2022-10-31T10:47:11;10.17;;;4.43;;
982;SDS011;480;48.124;11.578;2022-10-31T10:49:56;22.00;;;5.07;;
982;SDS011;480;48.124;11.578;2022-10-31T10:52:31;4.80;;;3.30;;
982;SDS011;480;48.124;11.578;2022-10-31T10:55:08;3.43;;;2.67;;
982;SDS011;480;48.124;11.578;2022-10-31T10:57:42;6.53;;;3.07;;
982;SDS011;480;48.124;11.578;2022-10-31T11:00:22;3.33;;;2.70;;
982;SDS011;480;48.124;11.578;2022-10-31T11:02:50;5.20;;;3.07;;
982;SDS011;480;48.124;11.578;2022-10-31T11:05:25;4.07;;;2.80;;
982;SDS011;480;48.124;11.578;2022-10-31T11:07:56;4.50;;;2.87;;
982;SDS011;480;48.124;11.578;2022-10-31T11:10:25;3.13;;;2.60;;
982;SDS011;480;48.124;11.578;2022-10-31T11:15:53;3.50;;;2.20;;
982;SDS011;480;48.124;11.578;2022-10-31T11:18:23;5.20;;;3.00;;
982;SDS011;480;48.124;11.578;2022-10-31T11:20:55;6.70;;;3.00;;
982;SDS011;480;48.124;11.578;2022-10-31T11:23:24;6.17;;;3.37;;
982;SDS011;480;48.124;11.578;2022-10-31T11:25:55;4.17;;;2.73;;
982;SDS011;480;48.124;11.578;2022-10-31T11:28:25;4.23;;;2.77;;
982;SDS011;480;48.124;11.578;2022-10-31T11:30:55;4.60;;;3.93;;
982;SDS011;480;48.124;11.578;2022-10-31T11:33:25;6.53;;;2.80;;
982;SDS011;480;48.124;11.578;2022-10-31T11:35:56;5.37;;;3.53;;
982;SDS011;480;48.124;11.578;2022-10-31T11:38:24;3.37;;;3.07;;
982;SDS011;480;48.124;11.578;2022-10-31T11:41:03;3.27;;;2.97;;
982;SDS011;480;48.124;11.578;2022-10-31T11:43:37;5.60;;;3.30;;
982;SDS011;480;48.124;11.578;2022-10-31T11:46:09;8.10;;;2.83;;
982;SDS011;480;48.124;11.578;2022-10-31T11:48:37;6.03;;;3.57;;
982;SDS011;480;48.124;11.578;2022-10-31T11:51:04;5.53;;;3.10;;
982;SDS011;480;48.124;11.578;2022-10-31T11:53:33;3.30;;;2.40;;
982;SDS011;480;48.124;11.578;2022-10-31T11:56:03;5.73;;;3.10;;
982;SDS011;480;48.124;11.578;2022-10-31T11:58:36;2.37;;;2.17;;
982;SDS011;480;48.124;11.578;2022-10-31T12:01:03;4.87;;;2.90;;
982;SDS011;480;48.124;11.578;2022-10-31T12:03:41;4.30;;;2.80;;
982;SDS011;480;48.124;11.578;2022-10-31T12:06:19;4.10;;;2.40;;
982;SDS011;480;48.124;11.578;2022-10-31T12:08:49;3.23;;;2.30;;
982;SDS011;480;48.124;11.578;2022-10-31T12:11:31;7.60;;;3.07;;
982;SDS011;480;48.124;11.578;2022-10-31T12:14:14;7.87;;;3.00;;
982;SDS011;480;48.124;11.578;2022-10-31T12:16:51;8.50;;;3.23;;
982;SDS011;480;48.124;11.578;2022-10-31T12:19:27;4.23;;;2.50;;
982;SDS011;480;48.124;11.578;2022-10-31T12:22:06;3.50;;;2.37;;
982;SDS011;480;48.124;11.578;2022-10-31T12:24:45;4.73;;;2.57;;
982;SDS011;480;48.124;11.578;2022-10-31T12:27:26;4.37;;;2.73;;
982;SDS011;480;48.124;11.578;2022-10-31T12:30:06;3.77;;;2.50;;
982;SDS011;480;48.124;11.578;2022-10-31T12:32:42;7.97;;;2.80;;
982;SDS011;480;48.124;11.578;2022-10-31T12:35:26;8.37;;;2.90;;
982;SDS011;480;48.124;11.578;2022-10-31T12:38:15;6.57;;;3.27;;
982;SDS011;480;48.124;11.578;2022-10-31T12:40:55;6.03;;;2.93;;
982;SDS011;480;48.124;11.578;2022-10-31T12:43:38;5.37;;;3.53;;
982;SDS011;480;48.124;11.578;2022-10-31T12:46:13;4.03;;;3.03;;
982;SDS011;480;48.124;11.578;2022-10-31T12:48:57;4.90;;;3.30;;
982;SDS011;480;48.124;11.578;2022-10-31T12:52:04;5.20;;;3.43;;
982;SDS011;480;48.124;11.578;2022-10-31T12:54:51;10.53;;;3.80;;
982;SDS011;480;48.124;11.578;2022-10-31T12:57:29;3.63;;;2.40;;
982;SDS011;480;48.124;11.578;2022-10-31T13:00:02;10.60;;;3.50;;
982;SDS011;480;48.124;11.578;2022-10-31T13:02:33;7.30;;;4.30;;
982;SDS011;480;48.124;11.578;2022-10-31T13:05:10;6.67;;;3.40;;
982;SDS011;480;48.124;11.578;2022-10-31T13:07:44;9.30;;;3.33;;
982;SDS011;480;48.124;11.578;2022-10-31T13:10:17;3.80;;;2.90;;
982;SDS011;480;48.124;11.578;2022-10-31T13:12:48;6.50;;;3.33;;
982;SDS011;480;48.124;11.578;2022-10-31T13:15:21;4.30;;;2.67;;
982;SDS011;480;48.124;11.578;2022-10-31T13:17:51;6.43;;;3.00;;
982;SDS011;480;48.124;11.578;2022-10-31T13:20:23;5.00;;;3.17;;
982;SDS011;480;48.124;11.578;2022-10-31T13:22:55;4.00;;;3.70;;
982;SDS011;480;48.124;11.578;2022-10-31T13:25:30;7.70;;;3.30;;
982;SDS011;480;48.124;11.578;2022-10-31T13:28:05;5.77;;;2.93;;
982;SDS011;480;48.124;11.578;2022-10-31T13:30:40;6.37;;;4.20;;
982;SDS011;480;48.124;11.578;2022-10-31T13:33:09;6.10;;;2.90;;
982;SDS011;480;48.124;11.578;2022-10-31T13:35:41;10.23;;;4.57;;
982;SDS011;480;48.124;11.578;2022-10-31T13:38:18;7.93;;;3.70;;
982;SDS011;480;48.124;11.578;2022-10-31T13:40:51;6.30;;;3.20;;
982;SDS011;480;48.124;11.578;2022-10-31T13:43:23;3.40;;;2.50;;
982;SDS011;480;48.124;11.578;2022-10-31T13:46:00;7.10;;;4.10;;
982;SDS011;480;48.124;11.578;2022-10-31T13:48:35;4.80;;;3.20;;
982;SDS011;480;48.124;11.578;2022-10-31T13:51:08;4.90;;;3.80;;
982;SDS011;480;48.124;11.578;2022-10-31T13:53:38;5.27;;;3.10;;
982;SDS011;480;48.124;11.578;2022-10-31T13:56:15;6.30;;;3.63;;
982;SDS011;480;48.124;11.578;2022-10-31T13:58:58;4.47;;;3.20;;
982;SDS011;480;48.124;11.578;2022-10-31T14:01:31;6.40;;;2.43;;
982;SDS011;480;48.124;11.578;2022-10-31T14:04:00;4.67;;;3.00;;
982;SDS011;480;48.124;11.578;2022-10-31T14:06:34;5.80;;;4.17;;
982;SDS011;480;48.124;11.578;2022-10-31T14:09:04;4.77;;;3.93;;
982;SDS011;480;48.124;11.578;2022-10-31T14:11:31;7.27;;;6.07;;
982;SDS011;480;48.124;11.578;2022-10-31T14:13:58;5.43;;;3.23;;
982;SDS011;480;48.124;11.578;2022-10-31T14:16:28;5.50;;;4.00;;
982;SDS011;480;48.124;11.578;2022-10-31T14:19:04;6.57;;;3.60;;
982;SDS011;480;48.124;11.578;2022-10-31T14:21:37;5.97;;;3.30;;
982;SDS011;480;48.124;11.578;2022-10-31T14:24:12;3.50;;;2.87;;
982;SDS011;480;48.124;11.578;2022-10-31T14:26:50;6.97;;;3.70;;
982;SDS011;480;48.124;11.578;2022-10-31T14:29:23;8.53;;;3.60;;
982;SDS011;480;48.124;11.578;2022-10-31T14:31:53;7.73;;;3.93;;
982;SDS011;480;48.124;11.578;2022-10-31T14:34:23;7.40;;;4.10;;
982;SDS011;480;48.124;11.578;2022-10-31T14:39:55;8.07;;;4.37;;
982;SDS011;480;48.124;11.578;2022-10-31T14:42:39;8.50;;;4.20;;
982;SDS011;480;48.124;11.578;2022-10-31T14:45:29;8.23;;;4.33;;
982;SDS011;480;48.124;11.578;2022-10-31T14:48:10;6.10;;;3.23;;
982;SDS011;480;48.124;11.578;2022-10-31T14:50:47;3.80;;;3.10;;
982;SDS011;480;48.124;11.578;2022-10-31T14:53:18;5.57;;;4.90;;
982;SDS011;480;48.124;11.578;2022-10-31T14:55:48;5.17;;;3.90;;
982;SDS011;480;48.124;11.578;2022-10-31T14:58:19;6.83;;;4.40;;
982;SDS011;480;48.124;11.578;2022-10-31T15:00:52;9.10;;;4.00;;
982;SDS011;480;48.124;11.578;2022-10-31T15:03:25;9.17;;;3.73;;
982;SDS011;480;48.124;11.578;2022-10-31T15:05:59;5.80;;;3.50;;
982;SDS011;480;48.124;11.578;2022-10-31T15:08:31;7.33;;;3.53;;
982;SDS011;480;48.124;11.578;2022-10-31T15:11:09;7.10;;;3.63;;
982;SDS011;480;48.124;11.578;2022-10-31T15:13:41;7.47;;;4.13;;
982;SDS011;480;48.124;11.578;2022-10-31T15:16:10;7.50;;;3.83;;
982;SDS011;480;48.124;11.578;2022-10-31T15:18:44;7.30;;;4.67;;
982;SDS011;480;48.124;11.578;2022-10-31T15:21:15;11.93;;;5.70;;
982;SDS011;480;48.124;11.578;2022-10-31T15:23:43;5.73;;;5.07;;
982;SDS011;480;48.124;11.578;2022-10-31T15:26:13;6.13;;;4.33;;
982;SDS011;480;48.124;11.578;2022-10-31T15:28:57;7.93;;;4.20;;
982;SDS011;480;48.124;11.578;2022-10-31T15:31:25;14.73;;;6.87;;
982;SDS011;480;48.124;11.578;2022-10-31T15:33:53;7.80;;;7.00;;
982;SDS011;480;48.124;11.578;2022-10-31T15:36:24;11.83;;;5.40;;
982;SDS011;480;48.124;11.578;2022-10-31T15:38:52;7.97;;;6.20;;
982;SDS011;480;48.124;11.578;2022-10-31T15:41:24;6.20;;;5.70;;
982;SDS011;480;48.124;11.578;2022-10-31T15:44:00;8.73;;;6.20;;
982;SDS011;480;48.124;11.578;2022-10-31T15:46:30;10.13;;;6.93;;
982;SDS011;480;48.124;11.578;2022-10-31T15:49:00;10.70;;;6.23;;
982;SDS011;480;48.124;11.578;2022-10-31T15:51:28;8.37;;;6.00;;
982;SDS011;480;48.124;11.578;2022-10-31T15:53:59;6.93;;;5.93;;
982;SDS011;480;48.124;11.578;2022-10-31T15:56:27;7.70;;;6.33;;
982;SDS011;480;48.124;11.578;2022-10-31T15:58:58;10.63;;;6.67;;
982;SDS011;480;48.124;11.578;2022-10-31T16:01:27;11.60;;;6.73;;
982;SDS011;480;48.124;11.578;2022-10-31T16:04:02;11.53;;;7.20;;
982;SDS011;480;48.124;11.578;2022-10-31T16:06:31;12.80;;;7.80;;
982;SDS011;480;48.124;11.578;2022-10-31T16:08:59;9.27;;;7.30;;